sensor_id;sensor_type;location;lat;lon;timestamp;P1;durP1;ratioP1;P2;durP2;ratioP2
69203;SDS011;56317;27.658;85.326;2024-01-30T00:00:33;217.70;;;93.95;;
69203;SDS011;56317;27.658;85.326;2024-01-30T00:03:00;212.93;;;89.80;;
69203;SDS011;56317;27.658;85.326;2024-01-30T00:05:27;229.85;;;94.15;;
69203;SDS011;56317;27.658;85.326;2024-01-30T00:07:54;235.27;;;97.65;;
69203;SDS011;56317;27.658;85.326;2024-01-30T00:10:22;227.95;;;90.75;;
69203;SDS011;56317;27.658;85.326;2024-01-30T00:12:49;224.75;;;91.55;;
69203;SDS011;56317;27.658;85.326;2024-01-30T00:15:16;213.00;;;92.88;;
69203;SDS011;56317;27.658;85.326;2024-01-30T00:17:43;225.48;;;94.90;;
69203;SDS011;56317;27.658;85.326;2024-01-30T00:20:11;214.70;;;94.03;;
69203;SDS011;56317;27.658;85.326;2024-01-30T00:22:38;212.02;;;90.68;;
69203;SDS011;56317;27.658;85.326;2024-01-30T00:25:05;216.23;;;91.93;;
69203;SDS011;56317;27.658;85.326;2024-01-30T00:27:32;225.40;;;100.57;;
69203;SDS011;56317;27.658;85.326;2024-01-30T00:30:00;266.98;;;113.85;;
69203;SDS011;56317;27.658;85.326;2024-01-30T00:32:27;251.80;;;110.97;;
69203;SDS011;56317;27.658;85.326;2024-01-30T00:34:54;257.63;;;112.20;;
69203;SDS011;56317;27.658;85.326;2024-01-30T00:37:21;265.33;;;115.85;;
69203;SDS011;56317;27.658;85.326;2024-01-30T00:39:49;268.50;;;120.22;;
69203;SDS011;56317;27.658;85.326;2024-01-30T00:42:16;281.05;;;125.72;;
69203;SDS011;56317;27.658;85.326;2024-01-30T00:44:43;292.75;;;128.52;;
69203;SDS011;56317;27.658;85.326;2024-01-30T00:47:10;302.17;;;137.13;;
69203;SDS011;56317;27.658;85.326;2024-01-30T00:49:37;284.95;;;129.55;;
69203;SDS011;56317;27.658;85.326;2024-01-30T00:52:05;282.25;;;129.30;;
69203;SDS011;56317;27.658;85.326;2024-01-30T00:54:32;309.23;;;135.65;;
69203;SDS011;56317;27.658;85.326;2024-01-30T00:56:59;300.40;;;134.60;;
69203;SDS011;56317;27.658;85.326;2024-01-30T00:59:26;275.10;;;129.55;;
69203;SDS011;56317;27.658;85.326;2024-01-30T01:01:53;278.25;;;131.38;;
69203;SDS011;56317;27.658;85.326;2024-01-30T01:04:20;310.77;;;134.13;;
69203;SDS011;56317;27.658;85.326;2024-01-30T01:06:47;294.67;;;130.98;;
69203;SDS011;56317;27.658;85.326;2024-01-30T01:09:15;269.67;;;123.65;;
69203;SDS011;56317;27.658;85.326;2024-01-30T01:11:42;271.92;;;123.00;;
69203;SDS011;56317;27.658;85.326;2024-01-30T01:14:09;275.45;;;122.10;;
69203;SDS011;56317;27.658;85.326;2024-01-30T01:16:36;282.13;;;120.68;;
69203;SDS011;56317;27.658;85.326;2024-01-30T01:19:03;288.10;;;121.78;;
69203;SDS011;56317;27.658;85.326;2024-01-30T01:21:30;277.60;;;117.20;;
69203;SDS011;56317;27.658;85.326;2024-01-30T01:23:58;267.75;;;117.70;;
69203;SDS011;56317;27.658;85.326;2024-01-30T01:26:25;274.60;;;121.20;;
69203;SDS011;56317;27.658;85.326;2024-01-30T01:28:52;296.00;;;130.18;;
69203;SDS011;56317;27.658;85.326;2024-01-30T01:31:19;305.70;;;133.32;;
69203;SDS011;56317;27.658;85.326;2024-01-30T01:33:50;294.05;;;128.25;;
69203;SDS011;56317;27.658;85.326;2024-01-30T01:36:17;297.20;;;131.07;;
69203;SDS011;56317;27.658;85.326;2024-01-30T01:38:44;297.33;;;128.50;;
69203;SDS011;56317;27.658;85.326;2024-01-30T01:41:11;302.67;;;132.43;;
69203;SDS011;56317;27.658;85.326;2024-01-30T01:43:38;304.33;;;130.60;;
69203;SDS011;56317;27.658;85.326;2024-01-30T01:46:06;304.52;;;131.45;;
69203;SDS011;56317;27.658;85.326;2024-01-30T01:48:34;280.38;;;124.85;;
69203;SDS011;56317;27.658;85.326;2024-01-30T01:51:02;281.17;;;127.78;;
69203;SDS011;56317;27.658;85.326;2024-01-30T01:53:29;281.58;;;126.00;;
69203;SDS011;56317;27.658;85.326;2024-01-30T01:55:57;281.15;;;124.03;;
69203;SDS011;56317;27.658;85.326;2024-01-30T01:58:24;276.52;;;124.43;;
69203;SDS011;56317;27.658;85.326;2024-01-30T02:00:57;274.80;;;121.05;;
69203;SDS011;56317;27.658;85.326;2024-01-30T02:03:25;280.20;;;124.97;;
69203;SDS011;56317;27.658;85.326;2024-01-30T02:05:52;264.63;;;116.82;;
69203;SDS011;56317;27.658;85.326;2024-01-30T02:08:19;252.88;;;112.47;;
69203;SDS011;56317;27.658;85.326;2024-01-30T02:10:47;243.38;;;103.70;;
69203;SDS011;56317;27.658;85.326;2024-01-30T02:13:14;224.32;;;103.43;;
69203;SDS011;56317;27.658;85.326;2024-01-30T02:15:41;218.57;;;93.13;;
69203;SDS011;56317;27.658;85.326;2024-01-30T02:18:08;200.23;;;90.97;;
69203;SDS011;56317;27.658;85.326;2024-01-30T02:20:35;194.52;;;88.97;;
69203;SDS011;56317;27.658;85.326;2024-01-30T02:23:04;203.60;;;88.55;;
69203;SDS011;56317;27.658;85.326;2024-01-30T02:25:38;187.27;;;87.70;;
69203;SDS011;56317;27.658;85.326;2024-01-30T02:28:13;190.07;;;86.25;;
69203;SDS011;56317;27.658;85.326;2024-01-30T02:30:44;196.27;;;85.00;;
69203;SDS011;56317;27.658;85.326;2024-01-30T02:33:12;153.10;;;67.90;;
69203;SDS011;56317;27.658;85.326;2024-01-30T02:35:39;194.77;;;86.35;;
69203;SDS011;56317;27.658;85.326;2024-01-30T02:38:07;190.20;;;86.38;;
69203;SDS011;56317;27.658;85.326;2024-01-30T02:40:34;190.45;;;86.10;;
69203;SDS011;56317;27.658;85.326;2024-01-30T02:43:02;197.27;;;89.32;;
69203;SDS011;56317;27.658;85.326;2024-01-30T02:45:29;210.23;;;87.93;;
69203;SDS011;56317;27.658;85.326;2024-01-30T02:47:57;200.43;;;90.22;;
69203;SDS011;56317;27.658;85.326;2024-01-30T02:50:24;206.27;;;92.10;;
69203;SDS011;56317;27.658;85.326;2024-01-30T02:52:51;204.07;;;90.25;;
69203;SDS011;56317;27.658;85.326;2024-01-30T02:55:18;202.20;;;87.43;;
69203;SDS011;56317;27.658;85.326;2024-01-30T02:57:46;206.93;;;90.10;;
69203;SDS011;56317;27.658;85.326;2024-01-30T03:00:13;219.70;;;101.03;;
69203;SDS011;56317;27.658;85.326;2024-01-30T03:02:40;226.75;;;109.30;;
69203;SDS011;56317;27.658;85.326;2024-01-30T03:05:08;242.88;;;115.35;;
69203;SDS011;56317;27.658;85.326;2024-01-30T03:07:35;237.32;;;104.47;;
69203;SDS011;56317;27.658;85.326;2024-01-30T03:10:04;233.55;;;108.80;;
69203;SDS011;56317;27.658;85.326;2024-01-30T03:12:32;246.38;;;114.40;;
69203;SDS011;56317;27.658;85.326;2024-01-30T03:14:59;239.20;;;114.55;;
69203;SDS011;56317;27.658;85.326;2024-01-30T03:17:26;262.55;;;118.97;;
69203;SDS011;56317;27.658;85.326;2024-01-30T03:19:54;242.70;;;116.88;;
69203;SDS011;56317;27.658;85.326;2024-01-30T03:22:21;231.90;;;113.25;;
69203;SDS011;56317;27.658;85.326;2024-01-30T03:24:48;241.68;;;109.25;;
69203;SDS011;56317;27.658;85.326;2024-01-30T03:27:17;233.00;;;111.97;;
69203;SDS011;56317;27.658;85.326;2024-01-30T03:29:44;238.10;;;113.75;;
69203;SDS011;56317;27.658;85.326;2024-01-30T03:32:11;238.68;;;108.32;;
69203;SDS011;56317;27.658;85.326;2024-01-30T03:34:38;219.65;;;106.28;;
69203;SDS011;56317;27.658;85.326;2024-01-30T03:37:06;205.93;;;102.18;;
69203;SDS011;56317;27.658;85.326;2024-01-30T03:39:35;230.15;;;105.45;;
69203;SDS011;56317;27.658;85.326;2024-01-30T03:42:02;204.57;;;102.28;;
69203;SDS011;56317;27.658;85.326;2024-01-30T03:44:29;221.68;;;100.30;;
69203;SDS011;56317;27.658;85.326;2024-01-30T03:46:57;206.48;;;97.75;;
69203;SDS011;56317;27.658;85.326;2024-01-30T03:49:25;200.93;;;99.03;;
69203;SDS011;56317;27.658;85.326;2024-01-30T03:51:55;207.73;;;100.68;;
69203;SDS011;56317;27.658;85.326;2024-01-30T03:54:23;231.73;;;106.30;;
69203;SDS011;56317;27.658;85.326;2024-01-30T03:56:50;217.20;;;100.70;;
69203;SDS011;56317;27.658;85.326;2024-01-30T03:59:20;233.73;;;105.80;;
69203;SDS011;56317;27.658;85.326;2024-01-30T04:01:50;236.38;;;104.45;;
69203;SDS011;56317;27.658;85.326;2024-01-30T04:04:17;221.75;;;107.38;;
69203;SDS011;56317;27.658;85.326;2024-01-30T04:06:45;215.02;;;105.00;;
69203;SDS011;56317;27.658;85.326;2024-01-30T04:09:13;216.98;;;106.95;;
69203;SDS011;56317;27.658;85.326;2024-01-30T04:11:41;216.02;;;104.63;;
69203;SDS011;56317;27.658;85.326;2024-01-30T04:14:08;197.65;;;101.00;;
69203;SDS011;56317;27.658;85.326;2024-01-30T04:16:36;200.27;;;96.95;;
69203;SDS011;56317;27.658;85.326;2024-01-30T04:19:04;190.30;;;95.47;;
69203;SDS011;56317;27.658;85.326;2024-01-30T04:21:31;186.18;;;92.32;;
69203;SDS011;56317;27.658;85.326;2024-01-30T04:23:58;196.13;;;93.53;;
69203;SDS011;56317;27.658;85.326;2024-01-30T04:26:25;180.70;;;89.20;;
69203;SDS011;56317;27.658;85.326;2024-01-30T04:28:53;176.40;;;91.05;;
69203;SDS011;56317;27.658;85.326;2024-01-30T04:31:20;170.30;;;84.75;;
69203;SDS011;56317;27.658;85.326;2024-01-30T04:33:47;175.00;;;85.80;;
69203;SDS011;56317;27.658;85.326;2024-01-30T04:36:15;156.45;;;79.82;;
69203;SDS011;56317;27.658;85.326;2024-01-30T04:38:42;155.73;;;73.90;;
69203;SDS011;56317;27.658;85.326;2024-01-30T04:41:09;141.82;;;70.47;;
69203;SDS011;56317;27.658;85.326;2024-01-30T04:43:36;147.60;;;70.38;;
69203;SDS011;56317;27.658;85.326;2024-01-30T04:46:04;140.60;;;71.07;;
69203;SDS011;56317;27.658;85.326;2024-01-30T04:48:31;143.80;;;67.70;;
69203;SDS011;56317;27.658;85.326;2024-01-30T04:50:58;138.25;;;66.80;;
69203;SDS011;56317;27.658;85.326;2024-01-30T04:53:29;132.55;;;65.57;;
69203;SDS011;56317;27.658;85.326;2024-01-30T04:55:57;136.45;;;67.53;;
69203;SDS011;56317;27.658;85.326;2024-01-30T04:58:24;131.95;;;65.20;;
69203;SDS011;56317;27.658;85.326;2024-01-30T05:00:52;121.20;;;58.67;;
69203;SDS011;56317;27.658;85.326;2024-01-30T05:03:19;130.70;;;62.65;;
69203;SDS011;56317;27.658;85.326;2024-01-30T05:05:48;130.00;;;62.60;;
69203;SDS011;56317;27.658;85.326;2024-01-30T05:08:16;126.40;;;65.25;;
69203;SDS011;56317;27.658;85.326;2024-01-30T05:10:43;148.30;;;65.95;;
69203;SDS011;56317;27.658;85.326;2024-01-30T05:13:10;120.03;;;60.08;;
69203;SDS011;56317;27.658;85.326;2024-01-30T05:15:39;122.28;;;59.15;;
69203;SDS011;56317;27.658;85.326;2024-01-30T05:18:06;119.88;;;60.92;;
69203;SDS011;56317;27.658;85.326;2024-01-30T05:20:33;126.97;;;61.22;;
69203;SDS011;56317;27.658;85.326;2024-01-30T05:23:01;133.60;;;63.35;;
69203;SDS011;56317;27.658;85.326;2024-01-30T05:25:31;125.72;;;61.35;;
69203;SDS011;56317;27.658;85.326;2024-01-30T05:27:59;118.05;;;58.10;;
69203;SDS011;56317;27.658;85.326;2024-01-30T05:30:26;129.63;;;60.05;;
69203;SDS011;56317;27.658;85.326;2024-01-30T05:32:53;109.45;;;54.78;;
69203;SDS011;56317;27.658;85.326;2024-01-30T05:35:20;110.82;;;54.95;;
69203;SDS011;56317;27.658;85.326;2024-01-30T05:37:51;97.07;;;53.17;;
69203;SDS011;56317;27.658;85.326;2024-01-30T05:40:18;105.33;;;51.10;;
69203;SDS011;56317;27.658;85.326;2024-01-30T05:42:45;86.97;;;46.00;;
69203;SDS011;56317;27.658;85.326;2024-01-30T05:45:13;79.28;;;41.72;;
69203;SDS011;56317;27.658;85.326;2024-01-30T05:47:40;99.18;;;47.67;;
69203;SDS011;56317;27.658;85.326;2024-01-30T06:02:12;81.65;;;43.95;;
69203;SDS011;56317;27.658;85.326;2024-01-30T06:04:40;81.03;;;43.17;;
69203;SDS011;56317;27.658;85.326;2024-01-30T06:07:08;77.22;;;40.78;;
69203;SDS011;56317;27.658;85.326;2024-01-30T06:09:35;74.30;;;42.35;;
69203;SDS011;56317;27.658;85.326;2024-01-30T06:12:02;73.57;;;40.55;;
69203;SDS011;56317;27.658;85.326;2024-01-30T06:14:31;76.35;;;40.13;;
69203;SDS011;56317;27.658;85.326;2024-01-30T06:16:59;82.60;;;44.38;;
69203;SDS011;56317;27.658;85.326;2024-01-30T06:19:26;86.15;;;47.17;;
69203;SDS011;56317;27.658;85.326;2024-01-30T06:21:53;107.72;;;53.03;;
69203;SDS011;56317;27.658;85.326;2024-01-30T06:24:20;90.85;;;50.30;;
69203;SDS011;56317;27.658;85.326;2024-01-30T06:26:48;98.88;;;53.45;;
69203;SDS011;56317;27.658;85.326;2024-01-30T06:29:18;91.93;;;49.83;;
69203;SDS011;56317;27.658;85.326;2024-01-30T06:31:46;95.07;;;49.28;;
69203;SDS011;56317;27.658;85.326;2024-01-30T06:34:13;84.05;;;45.60;;
69203;SDS011;56317;27.658;85.326;2024-01-30T06:36:40;99.13;;;52.53;;
69203;SDS011;56317;27.658;85.326;2024-01-30T06:39:08;85.30;;;48.03;;
69203;SDS011;56317;27.658;85.326;2024-01-30T06:41:35;100.72;;;55.72;;
69203;SDS011;56317;27.658;85.326;2024-01-30T06:44:02;106.15;;;51.75;;
69203;SDS011;56317;27.658;85.326;2024-01-30T06:46:32;97.25;;;52.25;;
69203;SDS011;56317;27.658;85.326;2024-01-30T06:48:59;90.65;;;47.05;;
69203;SDS011;56317;27.658;85.326;2024-01-30T06:51:27;88.47;;;49.85;;
69203;SDS011;56317;27.658;85.326;2024-01-30T06:53:54;89.97;;;49.20;;
69203;SDS011;56317;27.658;85.326;2024-01-30T06:56:22;112.10;;;55.67;;
69203;SDS011;56317;27.658;85.326;2024-01-30T06:58:49;102.13;;;50.00;;
69203;SDS011;56317;27.658;85.326;2024-01-30T07:01:17;117.40;;;57.70;;
69203;SDS011;56317;27.658;85.326;2024-01-30T07:03:44;111.82;;;57.03;;
69203;SDS011;56317;27.658;85.326;2024-01-30T07:06:12;130.48;;;60.25;;
69203;SDS011;56317;27.658;85.326;2024-01-30T07:08:39;124.35;;;59.67;;
69203;SDS011;56317;27.658;85.326;2024-01-30T07:11:07;136.80;;;65.40;;
69203;SDS011;56317;27.658;85.326;2024-01-30T07:13:34;131.15;;;63.78;;
69203;SDS011;56317;27.658;85.326;2024-01-30T07:16:01;140.32;;;67.53;;
69203;SDS011;56317;27.658;85.326;2024-01-30T07:18:29;115.43;;;56.55;;
69203;SDS011;56317;27.658;85.326;2024-01-30T07:20:56;78.00;;;39.28;;
69203;SDS011;56317;27.658;85.326;2024-01-30T07:23:24;82.50;;;42.25;;
69203;SDS011;56317;27.658;85.326;2024-01-30T07:28:22;73.43;;;37.00;;
69203;SDS011;56317;27.658;85.326;2024-01-30T07:30:49;74.38;;;37.13;;
69203;SDS011;56317;27.658;85.326;2024-01-30T07:33:17;72.03;;;36.10;;
69203;SDS011;56317;27.658;85.326;2024-01-30T07:35:45;71.90;;;37.15;;
69203;SDS011;56317;27.658;85.326;2024-01-30T07:38:15;81.72;;;39.22;;
69203;SDS011;56317;27.658;85.326;2024-01-30T07:40:43;71.25;;;35.58;;
69203;SDS011;56317;27.658;85.326;2024-01-30T07:43:10;66.78;;;33.03;;
69203;SDS011;56317;27.658;85.326;2024-01-30T07:45:37;59.70;;;29.80;;
69203;SDS011;56317;27.658;85.326;2024-01-30T07:48:05;53.15;;;27.42;;
69203;SDS011;56317;27.658;85.326;2024-01-30T07:50:32;78.53;;;35.53;;
69203;SDS011;56317;27.658;85.326;2024-01-30T07:53:00;70.50;;;38.65;;
69203;SDS011;56317;27.658;85.326;2024-01-30T07:55:28;72.68;;;36.67;;
69203;SDS011;56317;27.658;85.326;2024-01-30T07:57:57;69.00;;;38.40;;
69203;SDS011;56317;27.658;85.326;2024-01-30T08:00:24;60.25;;;32.05;;
69203;SDS011;56317;27.658;85.326;2024-01-30T08:02:52;76.55;;;37.83;;
69203;SDS011;56317;27.658;85.326;2024-01-30T08:05:21;64.15;;;33.92;;
69203;SDS011;56317;27.658;85.326;2024-01-30T08:07:49;66.65;;;33.72;;
69203;SDS011;56317;27.658;85.326;2024-01-30T08:10:17;68.60;;;35.25;;
69203;SDS011;56317;27.658;85.326;2024-01-30T08:12:44;75.38;;;34.53;;
69203;SDS011;56317;27.658;85.326;2024-01-30T08:15:12;80.70;;;37.45;;
69203;SDS011;56317;27.658;85.326;2024-01-30T08:17:40;67.93;;;35.83;;
69203;SDS011;56317;27.658;85.326;2024-01-30T08:20:07;75.63;;;37.88;;
69203;SDS011;56317;27.658;85.326;2024-01-30T08:22:40;70.28;;;34.35;;
69203;SDS011;56317;27.658;85.326;2024-01-30T08:25:07;61.70;;;32.80;;
69203;SDS011;56317;27.658;85.326;2024-01-30T08:27:35;67.07;;;33.40;;
69203;SDS011;56317;27.658;85.326;2024-01-30T08:30:05;65.28;;;34.08;;
69203;SDS011;56317;27.658;85.326;2024-01-30T08:32:33;70.57;;;33.60;;
69203;SDS011;56317;27.658;85.326;2024-01-30T08:35:00;66.35;;;32.83;;
69203;SDS011;56317;27.658;85.326;2024-01-30T08:37:32;70.32;;;35.20;;
69203;SDS011;56317;27.658;85.326;2024-01-30T08:39:59;62.80;;;33.80;;
69203;SDS011;56317;27.658;85.326;2024-01-30T08:42:28;64.60;;;34.22;;
69203;SDS011;56317;27.658;85.326;2024-01-30T08:44:55;120.80;;;38.47;;
69203;SDS011;56317;27.658;85.326;2024-01-30T08:47:22;60.28;;;31.60;;
69203;SDS011;56317;27.658;85.326;2024-01-30T08:49:51;59.60;;;32.10;;
69203;SDS011;56317;27.658;85.326;2024-01-30T08:52:18;55.70;;;31.42;;
69203;SDS011;56317;27.658;85.326;2024-01-30T08:54:46;66.13;;;34.08;;
69203;SDS011;56317;27.658;85.326;2024-01-30T08:57:13;64.85;;;34.10;;
69203;SDS011;56317;27.658;85.326;2024-01-30T08:59:40;68.97;;;35.55;;
69203;SDS011;56317;27.658;85.326;2024-01-30T09:02:10;64.03;;;34.65;;
69203;SDS011;56317;27.658;85.326;2024-01-30T09:04:38;72.30;;;36.47;;
69203;SDS011;56317;27.658;85.326;2024-01-30T09:07:06;67.05;;;35.83;;
69203;SDS011;56317;27.658;85.326;2024-01-30T09:09:34;66.00;;;35.08;;
69203;SDS011;56317;27.658;85.326;2024-01-30T09:12:05;77.75;;;37.85;;
69203;SDS011;56317;27.658;85.326;2024-01-30T09:14:35;233.20;;;50.53;;
69203;SDS011;56317;27.658;85.326;2024-01-30T09:17:03;84.32;;;39.22;;
69203;SDS011;56317;27.658;85.326;2024-01-30T09:19:31;81.65;;;38.25;;
69203;SDS011;56317;27.658;85.326;2024-01-30T09:21:58;75.38;;;38.20;;
69203;SDS011;56317;27.658;85.326;2024-01-30T09:24:26;77.38;;;36.65;;
69203;SDS011;56317;27.658;85.326;2024-01-30T09:26:54;104.53;;;41.30;;
69203;SDS011;56317;27.658;85.326;2024-01-30T09:29:21;138.32;;;41.00;;
69203;SDS011;56317;27.658;85.326;2024-01-30T09:31:49;133.43;;;42.05;;
69203;SDS011;56317;27.658;85.326;2024-01-30T09:34:16;81.47;;;36.35;;
69203;SDS011;56317;27.658;85.326;2024-01-30T09:36:44;81.88;;;39.53;;
69203;SDS011;56317;27.658;85.326;2024-01-30T09:39:11;87.25;;;40.75;;
69203;SDS011;56317;27.658;85.326;2024-01-30T09:41:47;87.75;;;38.03;;
69203;SDS011;56317;27.658;85.326;2024-01-30T09:44:19;83.72;;;40.80;;
69203;SDS011;56317;27.658;85.326;2024-01-30T09:46:48;81.20;;;38.65;;
69203;SDS011;56317;27.658;85.326;2024-01-30T09:49:15;75.88;;;36.55;;
69203;SDS011;56317;27.658;85.326;2024-01-30T09:51:44;88.18;;;40.75;;
69203;SDS011;56317;27.658;85.326;2024-01-30T09:54:13;86.88;;;39.58;;
69203;SDS011;56317;27.658;85.326;2024-01-30T09:56:41;107.32;;;42.92;;
69203;SDS011;56317;27.658;85.326;2024-01-30T09:59:09;82.85;;;40.63;;
69203;SDS011;56317;27.658;85.326;2024-01-30T10:01:36;86.32;;;40.35;;
69203;SDS011;56317;27.658;85.326;2024-01-30T10:04:04;93.50;;;42.47;;
69203;SDS011;56317;27.658;85.326;2024-01-30T10:06:33;94.82;;;42.88;;
69203;SDS011;56317;27.658;85.326;2024-01-30T10:09:01;83.68;;;38.45;;
69203;SDS011;56317;27.658;85.326;2024-01-30T10:11:30;119.82;;;42.10;;
69203;SDS011;56317;27.658;85.326;2024-01-30T10:13:57;101.78;;;42.53;;
69203;SDS011;56317;27.658;85.326;2024-01-30T10:16:24;96.28;;;42.85;;
69203;SDS011;56317;27.658;85.326;2024-01-30T10:18:52;109.80;;;47.92;;
69203;SDS011;56317;27.658;85.326;2024-01-30T10:21:19;119.63;;;48.78;;
69203;SDS011;56317;27.658;85.326;2024-01-30T10:23:47;93.38;;;45.35;;
69203;SDS011;56317;27.658;85.326;2024-01-30T10:26:18;100.97;;;45.92;;
69203;SDS011;56317;27.658;85.326;2024-01-30T10:28:45;101.90;;;44.42;;
69203;SDS011;56317;27.658;85.326;2024-01-30T10:31:17;100.20;;;47.30;;
69203;SDS011;56317;27.658;85.326;2024-01-30T10:33:45;99.93;;;46.10;;
69203;SDS011;56317;27.658;85.326;2024-01-30T10:36:13;91.70;;;42.70;;
69203;SDS011;56317;27.658;85.326;2024-01-30T10:38:42;115.38;;;49.08;;
69203;SDS011;56317;27.658;85.326;2024-01-30T10:41:12;115.95;;;50.90;;
69203;SDS011;56317;27.658;85.326;2024-01-30T10:43:41;110.22;;;49.38;;
69203;SDS011;56317;27.658;85.326;2024-01-30T10:46:17;111.95;;;48.97;;
69203;SDS011;56317;27.658;85.326;2024-01-30T10:48:50;90.07;;;39.25;;
69203;SDS011;56317;27.658;85.326;2024-01-30T10:51:27;108.65;;;46.25;;
69203;SDS011;56317;27.658;85.326;2024-01-30T10:53:55;97.43;;;40.65;;
69203;SDS011;56317;27.658;85.326;2024-01-30T10:56:23;99.63;;;46.08;;
69203;SDS011;56317;27.658;85.326;2024-01-30T10:58:51;100.13;;;44.35;;
69203;SDS011;56317;27.658;85.326;2024-01-30T11:01:24;92.00;;;41.90;;
69203;SDS011;56317;27.658;85.326;2024-01-30T11:03:53;101.38;;;45.35;;
69203;SDS011;56317;27.658;85.326;2024-01-30T11:06:22;96.65;;;45.08;;
69203;SDS011;56317;27.658;85.326;2024-01-30T11:09:03;78.57;;;33.53;;
69203;SDS011;56317;27.658;85.326;2024-01-30T11:11:51;108.90;;;44.35;;
69203;SDS011;56317;27.658;85.326;2024-01-30T11:14:27;105.40;;;44.88;;
69203;SDS011;56317;27.658;85.326;2024-01-30T11:16:58;80.57;;;34.67;;
69203;SDS011;56317;27.658;85.326;2024-01-30T11:19:26;99.63;;;42.65;;
69203;SDS011;56317;27.658;85.326;2024-01-30T11:21:56;102.50;;;43.97;;
69203;SDS011;56317;27.658;85.326;2024-01-30T11:24:24;110.93;;;46.38;;
69203;SDS011;56317;27.658;85.326;2024-01-30T11:27:01;104.40;;;46.00;;
69203;SDS011;56317;27.658;85.326;2024-01-30T11:29:34;105.05;;;48.28;;
69203;SDS011;56317;27.658;85.326;2024-01-30T11:32:02;108.35;;;48.97;;
69203;SDS011;56317;27.658;85.326;2024-01-30T11:34:30;113.32;;;47.15;;
69203;SDS011;56317;27.658;85.326;2024-01-30T11:37:06;106.43;;;48.30;;
69203;SDS011;56317;27.658;85.326;2024-01-30T11:39:38;122.13;;;49.08;;
69203;SDS011;56317;27.658;85.326;2024-01-30T11:42:07;106.70;;;46.95;;
69203;SDS011;56317;27.658;85.326;2024-01-30T11:44:34;100.82;;;44.95;;
69203;SDS011;56317;27.658;85.326;2024-01-30T11:47:01;114.07;;;49.10;;
69203;SDS011;56317;27.658;85.326;2024-01-30T11:49:29;107.65;;;48.45;;
69203;SDS011;56317;27.658;85.326;2024-01-30T11:51:56;104.70;;;46.10;;
69203;SDS011;56317;27.658;85.326;2024-01-30T11:54:23;107.95;;;44.70;;
69203;SDS011;56317;27.658;85.326;2024-01-30T11:56:50;102.13;;;47.22;;
69203;SDS011;56317;27.658;85.326;2024-01-30T11:59:18;117.00;;;49.03;;
69203;SDS011;56317;27.658;85.326;2024-01-30T12:01:45;110.38;;;44.20;;
69203;SDS011;56317;27.658;85.326;2024-01-30T12:04:12;103.53;;;45.67;;
69203;SDS011;56317;27.658;85.326;2024-01-30T12:06:41;109.00;;;43.72;;
69203;SDS011;56317;27.658;85.326;2024-01-30T12:09:08;96.82;;;41.60;;
69203;SDS011;56317;27.658;85.326;2024-01-30T12:11:48;108.20;;;47.45;;
69203;SDS011;56317;27.658;85.326;2024-01-30T12:14:18;110.93;;;46.83;;
69203;SDS011;56317;27.658;85.326;2024-01-30T12:16:50;116.88;;;47.33;;
69203;SDS011;56317;27.658;85.326;2024-01-30T12:19:23;110.70;;;48.53;;
69203;SDS011;56317;27.658;85.326;2024-01-30T12:21:57;115.68;;;46.72;;
69203;SDS011;56317;27.658;85.326;2024-01-30T12:24:27;106.57;;;48.22;;
69203;SDS011;56317;27.658;85.326;2024-01-30T12:26:58;110.53;;;47.17;;
69203;SDS011;56317;27.658;85.326;2024-01-30T12:29:25;109.28;;;46.17;;
69203;SDS011;56317;27.658;85.326;2024-01-30T12:31:53;124.95;;;47.05;;
69203;SDS011;56317;27.658;85.326;2024-01-30T12:34:20;136.77;;;55.30;;
69203;SDS011;56317;27.658;85.326;2024-01-30T12:36:48;140.02;;;57.40;;
69203;SDS011;56317;27.658;85.326;2024-01-30T12:39:15;113.45;;;46.67;;
69203;SDS011;56317;27.658;85.326;2024-01-30T12:41:43;107.07;;;44.47;;
69203;SDS011;56317;27.658;85.326;2024-01-30T12:44:10;118.90;;;48.42;;
69203;SDS011;56317;27.658;85.326;2024-01-30T12:46:39;111.75;;;50.60;;
69203;SDS011;56317;27.658;85.326;2024-01-30T12:49:06;117.82;;;53.45;;
69203;SDS011;56317;27.658;85.326;2024-01-30T12:51:36;135.20;;;57.78;;
69203;SDS011;56317;27.658;85.326;2024-01-30T12:54:05;136.43;;;56.33;;
69203;SDS011;56317;27.658;85.326;2024-01-30T12:56:33;150.75;;;61.05;;
69203;SDS011;56317;27.658;85.326;2024-01-30T12:59:00;128.50;;;52.78;;
69203;SDS011;56317;27.658;85.326;2024-01-30T13:01:27;133.02;;;50.92;;
69203;SDS011;56317;27.658;85.326;2024-01-30T13:03:55;110.32;;;49.00;;
69203;SDS011;56317;27.658;85.326;2024-01-30T13:06:24;130.70;;;51.50;;
69203;SDS011;56317;27.658;85.326;2024-01-30T13:08:51;138.32;;;55.28;;
69203;SDS011;56317;27.658;85.326;2024-01-30T13:11:18;129.77;;;52.20;;
69203;SDS011;56317;27.658;85.326;2024-01-30T13:13:46;138.57;;;57.78;;
69203;SDS011;56317;27.658;85.326;2024-01-30T13:16:13;121.15;;;52.20;;
69203;SDS011;56317;27.658;85.326;2024-01-30T13:18:40;127.90;;;51.13;;
69203;SDS011;56317;27.658;85.326;2024-01-30T13:21:08;120.15;;;52.30;;
69203;SDS011;56317;27.658;85.326;2024-01-30T13:23:35;133.20;;;54.05;;
69203;SDS011;56317;27.658;85.326;2024-01-30T13:26:02;136.90;;;58.67;;
69203;SDS011;56317;27.658;85.326;2024-01-30T13:28:29;153.80;;;60.17;;
69203;SDS011;56317;27.658;85.326;2024-01-30T13:30:57;152.07;;;61.20;;
69203;SDS011;56317;27.658;85.326;2024-01-30T13:33:24;134.07;;;56.65;;
69203;SDS011;56317;27.658;85.326;2024-01-30T13:35:52;143.15;;;55.70;;
69203;SDS011;56317;27.658;85.326;2024-01-30T13:38:19;126.22;;;54.50;;
69203;SDS011;56317;27.658;85.326;2024-01-30T13:40:46;130.10;;;55.03;;
69203;SDS011;56317;27.658;85.326;2024-01-30T13:43:14;121.70;;;53.08;;
69203;SDS011;56317;27.658;85.326;2024-01-30T13:45:43;129.98;;;52.58;;
69203;SDS011;56317;27.658;85.326;2024-01-30T13:48:11;125.13;;;53.92;;
69203;SDS011;56317;27.658;85.326;2024-01-30T13:50:38;138.57;;;52.55;;
69203;SDS011;56317;27.658;85.326;2024-01-30T13:53:06;134.82;;;55.42;;
69203;SDS011;56317;27.658;85.326;2024-01-30T13:55:33;122.47;;;52.95;;
69203;SDS011;56317;27.658;85.326;2024-01-30T13:58:01;133.25;;;53.97;;
69203;SDS011;56317;27.658;85.326;2024-01-30T14:00:28;118.25;;;51.88;;
69203;SDS011;56317;27.658;85.326;2024-01-30T14:02:55;127.13;;;54.20;;
69203;SDS011;56317;27.658;85.326;2024-01-30T14:05:28;133.10;;;54.60;;
69203;SDS011;56317;27.658;85.326;2024-01-30T14:07:56;131.77;;;55.13;;
69203;SDS011;56317;27.658;85.326;2024-01-30T14:10:26;146.15;;;58.92;;
69203;SDS011;56317;27.658;85.326;2024-01-30T14:12:53;155.52;;;62.15;;
69203;SDS011;56317;27.658;85.326;2024-01-30T14:15:21;144.27;;;62.72;;
69203;SDS011;56317;27.658;85.326;2024-01-30T14:17:49;136.20;;;61.67;;